Weather observations for the past three days for
Decatur Airport
Metric (Imperial)
Date Time (cdt) Wind (kph) Vis. (km) Weather Sky Cond. Temperature (ºC) Relative Humidity Wind Chill (°C) Heat Index (°C) Pressure Precipitation (cm)
Air Dwpt 6 hour altimeter (cm) sea level (mb) 1 hr 3 hr 6 hr
Max. Min.
05 11:54 NW 17 16.09 Fair CLR 35 22.2 47% 40 76.07 1013.4
05 10:54 NW 13 16.09 A Few Clouds FEW120 33.9 22.2 50% 38 76.1 1013.8
05 09:54 NW 7 16.09 Fair CLR 32.8 22.2 54% 37 76.07 1013.3
05 08:54 W 7 16.09 Fair CLR 30.6 21.7 59% 34 76.07 1013.5
05 07:54 SW 6 16.09 Fair CLR 27.2 22.8 77% 30 76.07 1013.4
05 06:54 Calm 16.09 Fair CLR 24.4 21.7 26.1 23.9 85% 25 76.05 1013.0
05 05:54 Calm 16.09 Partly Cloudy SCT070 24.4 21.1 82% 25 76.05 1013.0
05 04:54 Calm 16.09 Fair CLR 24.4 21.7 85% 25 76.02 1012.7
05 03:54 W 6 16.09 Fair CLR 25 22.8 88% 26 76 1012.5
05 02:54 Calm 16.09 Partly Cloudy SCT075 25 22.8 88% 26 76.02 1012.8
05 01:54 SW 7 16.09 A Few Clouds FEW070 25.6 22.8 85% 27 76.05 1013.1
05 00:54 Calm 16.09 Fair CLR 25.6 22.8 32.8 25.6 85% 27 76.05 1013.1
04 23:54 Calm 16.09 Fair CLR 26.1 23.3 85% 28 76.07 1013.2
04 22:54 Calm 16.09 Fair CLR 25.6 23.3 87% 27 76.07 1013.5
04 21:54 Calm 16.09 Light Rain CLR 25.6 23.3 87% 27 76.07 1013.3
04 20:54 NE 7 16.09 Fair CLR 27.2 23.3 79% 30 76.02 1012.9
04 19:54 N 6 16.09 Fair CLR 30.6 22.2 61% 34 76 1012.4
04 18:54 NW 9 16.09 Fair CLR 33.3 21.7 36.7 33.3 51% 37 75.97 1012.2
04 17:54 W 7 16.09 Fair CLR 35.6 19.4 39% 38 75.97 1012.2
04 16:54 SW 13 16.09 Fair CLR 36.1 19.4 37% 38 75.97 1011.9
04 15:54 SW 15 16.09 Fair CLR 36.7 20.6 39% 40 76.02 1012.8
04 14:54 S 9 16.09 Fair CLR 36.1 20 39% 39 76.07 1013.3
04 13:54 Vrbl 11 16.09 Fair CLR 35.6 21.1 43% 39 76.12 1014.1
04 12:54 Vrbl 6 16.09 Fair CLR 35 21.1 35 24.4 44% 39 76.17 1014.7
04 11:54 SW 15 16.09 Fair CLR 34.4 21.7 48% 38 76.2 1015.2
04 10:54 W 15 16.09 Fair CLR 32.8 22.2 54% 37 76.23 1015.4
04 09:54 W 17 16.09 Fair CLR 31.1 21.7 57% 34 76.2 1015.1
04 08:54 W 11 16.09 Fair CLR 29.4 21.7 63% 32 76.17 1014.9
04 07:54 SW 13 16.09 Fair CLR 27.2 21.7 72% 29 76.15 1014.6
04 06:54 SW 13 16.09 Fair CLR 24.4 21.1 26.1 23.9 82% 25 76.12 1014.2
04 05:54 SW 7 16.09 Fair CLR 24.4 21.1 82% 25 76.12 1014.1
04 04:54 SW 7 16.09 Fair CLR 25 21.1 79% 26 76.1 1013.8
04 02:54 S 7 16.09 Fair CLR 25 20.6 77% 26 76.1 1013.5
04 01:54 SW 7 16.09 Fair CLR 26.1 20.6 72% 28 76.1 1013.8
04 00:54 S 7 16.09 Fair CLR 26.1 20.6 32.2 24.4 72% 28 76.12 1014.0
03 23:54 S 6 16.09 Fair CLR 26.1 21.1 74% 28 76.12 1014.0
03 22:54 S 6 16.09 Fair CLR 26.7 21.1 71% 28 76.1 1013.7
03 21:54 S 7 16.09 Fair CLR 26.7 21.1 71% 28 76.1 1013.7
03 20:54 S 9 16.09 Fair CLR 28.3 21.7 67% 31 76.05 1013.2
03 19:54 S 11 16.09 Fair CLR 29.4 21.1 61% 32 76.02 1012.8
03 18:54 S 9 16.09 Fair CLR 32.2 21.1 36.1 32.2 52% 35 76.02 1012.7
03 17:54 SW 13 16.09 Fair CLR 34.4 20.6 44% 37 76 1012.6
03 16:54 SW 20 16.09 Fair CLR 35.6 20 40% 38 76 1012.4
03 15:54 SW 15 16.09 Fair CLR 36.1 21.1 42% 40 76.02 1012.8
03 14:54 SW 17 16.09 Fair CLR 35.6 20.6 41% 39 76.07 1013.4
03 13:54 SW 9 16.09 Fair CLR 35.6 21.1 43% 39 76.12 1014.0
03 12:54 W 15 16.09 Fair CLR 34.4 21.1 34.4 23.9 46% 38 76.17 1014.5
03 11:54 SW 17 16.09 Partly Cloudy SCT100 32.8 22.2 54% 37 76.2 1015.1
03 10:54 SW 15 16.09 Partly Cloudy SCT095 SCT120 31.7 22.2 57% 36 76.2 1015.3
03 09:54 SW 20 16.09 Mostly Cloudy FEW085 BKN120 30.6 22.2 61% 34 76.2 1015.2
03 08:54 SW 19 16.09 Mostly Cloudy BKN120 28.3 21.7 67% 31 76.2 1015.2
03 07:54 SW 13 16.09 Fair CLR 26.1 21.7 77% 28 76.2 1015.3
03 06:54 S 9 16.09 Fair CLR 23.9 20.6 26.7 23.3 82% 24 76.2 1015.1
03 05:54 S 6 16.09 Fair CLR 24.4 20.6 79% 25 76.17 1014.8
03 04:54 SW 9 16.09 Fair CLR 25 20.6 77% 26 76.17 1014.6
03 03:54 S 11 16.09 Fair CLR 25 20.6 77% 26 76.17 1014.6
03 02:54 S 7 16.09 Fair CLR 24.4 20.6 79% 25 76.17 1014.6
03 01:54 SW 9 16.09 Fair CLR 25.6 20.6 74% 27 76.17 1014.7
03 00:54 SW 15 16.09 Fair CLR 26.7 20.6 32.2 26.7 69% 28 76.17 1014.6
02 23:54 SW 13 16.09 Fair CLR 27.2 20.6 67% 29 76.15 1014.3
02 22:54 S 11 16.09 Fair CLR 27.2 20.6 67% 29 76.15 1014.4
02 21:54 SW 11 16.09 Fair CLR 27.8 20.6 65% 30 76.12 1014.2
02 20:54 S 9 16.09 Fair CLR 29.4 21.1 61% 32 76.12 1014.1
02 19:54 S 11 16.09 Fair CLR 29.4 21.7 63% 32 76.07 1013.6
02 18:54 SW 9 16.09 Fair CLR 32.2 22.2 36.1 32.2 56% 36 76.07 1013.6
02 17:54 SW 15 16.09 Fair CLR 35 20.6 43% 38 76.1 1013.7
02 16:54 SW 17 16.09 Fair CLR 35.6 20 40% 38 76.1 1013.7
02 15:54 SW 19 16.09 Fair CLR 36.1 20 39% 39 76.12 1014.0
02 14:54 S 20 16.09 Fair CLR 36.1 20.6 40% 39 76.17 1014.6
02 13:54 W 19 G 31 16.09 Fair CLR 36.1 20.6 40% 39 76.2 1015.0
02 12:54 W 19 G 31 16.09 Fair CLR 35 21.1 35 24.4 44% 39 76.23 1015.4
Date Time (cdt) Wind (kph) Vis. (km) Weather Sky Cond. Air Dwpt Max. Min. Relative Humidity Wind Chill (°C) Heat Index (°C) altimeter (cm) sea level (mb) 1 hr 3 hr 6 hr
6 hour
Temperature (ºC) Pressure Precipitation (cm)